createdAt,value
2019-02-08T00:00:31.369Z,99.90
2019-02-08T00:02:47.989Z,99.90
2019-02-08T00:05:04.344Z,99.90
2019-02-08T00:07:20.634Z,99.90
2019-02-08T00:09:55.205Z,99.90
2019-02-08T00:11:58.667Z,99.90
2019-02-08T00:14:16.213Z,99.90
2019-02-08T00:16:32.811Z,99.90
2019-02-08T00:18:48.871Z,99.90
2019-02-08T00:21:05.496Z,99.90
2019-02-08T00:23:26.641Z,99.90
2019-02-08T00:25:40.245Z,99.90
2019-02-08T00:27:56.787Z,99.90
2019-02-08T00:30:13.480Z,99.90
2019-02-08T00:32:31.843Z,99.90
2019-02-08T00:34:48.488Z,99.90
2019-02-08T00:37:05.163Z,99.90
2019-02-08T00:39:21.660Z,99.90
2019-02-08T00:41:38.266Z,99.90
2019-02-08T00:43:55.092Z,99.90
2019-02-08T00:46:11.768Z,99.90
2019-02-08T00:48:28.312Z,99.90
2019-02-08T00:50:44.303Z,99.90
2019-02-08T00:53:00.318Z,99.90
2019-02-08T00:55:16.979Z,99.90
2019-02-08T00:57:33.568Z,99.90
2019-02-08T00:59:50.228Z,99.90
2019-02-08T01:02:06.729Z,99.90
2019-02-08T01:04:23.315Z,99.90
2019-02-08T01:06:41.522Z,99.90
2019-02-08T01:08:57.882Z,99.90
2019-02-08T01:11:14.250Z,99.90
2019-02-08T01:13:35.250Z,99.90
2019-02-08T01:15:54.186Z,99.90
2019-02-08T01:18:10.786Z,99.90
2019-02-08T01:20:26.624Z,99.90
2019-02-08T01:22:42.481Z,99.90
2019-02-08T01:24:58.725Z,99.90
2019-02-08T01:27:14.993Z,99.90
2019-02-08T01:29:31.331Z,99.90
2019-02-08T01:31:47.739Z,99.90
2019-02-08T01:34:04.065Z,99.90
2019-02-08T01:36:22.890Z,99.90
2019-02-08T01:38:27.396Z,99.90
2019-02-08T01:40:51.000Z,99.90
2019-02-08T01:42:55.593Z,99.90
2019-02-08T01:47:48.080Z,99.90
2019-02-08T01:50:13.226Z,99.90
2019-02-08T01:52:29.095Z,99.90
2019-02-08T01:54:45.719Z,99.90
2019-02-08T01:57:05.203Z,99.90
2019-02-08T01:59:24.236Z,99.90
2019-02-08T02:01:40.532Z,99.90
2019-02-08T02:03:56.484Z,99.90
2019-02-08T02:08:33.128Z,99.90
2019-02-08T02:10:49.158Z,99.90
2019-02-08T02:13:05.579Z,99.90
2019-02-08T02:15:18.023Z,99.90
2019-02-08T02:17:41.609Z,99.90
2019-02-08T02:19:57.813Z,99.90
2019-02-08T02:22:14.183Z,99.90
2019-02-08T02:24:30.790Z,99.90
2019-02-08T02:26:46.707Z,99.90
2019-02-08T02:29:04.586Z,99.90
2019-02-08T02:31:22.894Z,99.90
2019-02-08T02:33:42.011Z,99.90
2019-02-08T02:35:58.242Z,99.90
2019-02-08T02:38:14.878Z,99.90
2019-02-08T02:40:31.468Z,99.90
2019-02-08T02:42:47.921Z,99.90
2019-02-08T02:45:04.217Z,99.90
2019-02-08T02:47:20.385Z,99.90
2019-02-08T02:49:36.100Z,99.90
2019-02-08T02:51:52.547Z,99.90
2019-02-08T02:54:08.575Z,99.90
2019-02-08T02:56:25.179Z,99.90
2019-02-08T02:58:41.777Z,99.90
2019-02-08T03:00:47.823Z,99.90
2019-02-08T03:03:11.816Z,99.90
2019-02-08T03:05:37.971Z,99.90
2019-02-08T03:07:54.173Z,99.90
2019-02-08T03:10:10.721Z,99.90
2019-02-08T03:12:28.551Z,99.90
2019-02-08T03:14:44.636Z,99.90
2019-02-08T03:17:00.936Z,99.90
2019-02-08T03:19:16.977Z,99.90
2019-02-08T03:21:33.522Z,99.90
2019-02-08T03:23:50.000Z,99.90
2019-02-08T03:26:06.635Z,99.90
2019-02-08T03:28:25.642Z,99.90
2019-02-08T03:30:59.705Z,99.90
2019-02-08T03:33:18.220Z,99.90
2019-02-08T03:35:34.436Z,99.90
2019-02-08T03:37:49.281Z,99.90
2019-02-08T03:40:31.986Z,99.90
2019-02-08T03:42:49.764Z,99.90
2019-02-08T03:45:05.702Z,99.90
2019-02-08T03:47:22.057Z,99.90
2019-02-08T03:49:39.292Z,99.90
2019-02-08T03:51:55.758Z,99.90
2019-02-08T03:54:29.896Z,99.90
2019-02-08T03:56:36.299Z,99.90
2019-02-08T03:58:52.801Z,99.90
2019-02-08T04:01:10.172Z,99.90
2019-02-08T04:03:27.675Z,99.90
2019-02-08T04:05:45.938Z,99.90
2019-02-08T04:08:05.138Z,99.90
2019-02-08T04:10:21.205Z,99.90
2019-02-08T04:12:37.251Z,99.90
2019-02-08T04:14:55.832Z,99.90
2019-02-08T04:17:12.461Z,99.90
2019-02-08T04:19:31.422Z,99.90
2019-02-08T04:21:47.317Z,99.90
2019-02-08T04:24:03.737Z,99.90
2019-02-08T04:26:20.007Z,99.90
2019-02-08T04:28:36.131Z,99.90
2019-02-08T04:33:11.437Z,99.90
2019-02-08T04:35:27.289Z,99.90
2019-02-08T04:37:43.339Z,99.90
2019-02-08T04:39:59.642Z,99.90
2019-02-08T04:42:18.765Z,99.90
2019-02-08T04:44:35.351Z,99.90
2019-02-08T04:46:56.408Z,99.90
2019-02-08T04:49:12.162Z,99.90
2019-02-08T04:51:30.049Z,99.90
2019-02-08T04:53:46.005Z,99.90
2019-02-08T04:56:12.153Z,99.90
2019-02-08T04:58:38.691Z,99.90
2019-02-08T05:00:44.792Z,99.90
2019-02-08T05:05:39.620Z,99.90
2019-02-08T05:07:55.778Z,99.90
2019-02-08T05:10:12.384Z,99.90
2019-02-08T05:12:28.769Z,99.90
2019-02-08T05:14:46.030Z,99.90
2019-02-08T05:17:02.496Z,99.90
2019-02-08T05:19:18.687Z,99.90
2019-02-08T05:21:35.043Z,99.90
2019-02-08T05:23:51.724Z,99.90
2019-02-08T05:26:08.260Z,99.90
2019-02-08T05:28:25.626Z,99.90
2019-02-08T05:30:41.946Z,99.90
2019-02-08T05:33:00.204Z,99.90
2019-02-08T05:35:16.263Z,99.90
2019-02-08T05:37:32.912Z,99.90
2019-02-08T05:39:49.359Z,99.90
2019-02-08T05:42:05.913Z,99.90
2019-02-08T05:44:22.328Z,99.90
2019-02-08T05:46:38.916Z,99.90
2019-02-08T05:51:16.262Z,99.90
2019-02-08T05:53:39.967Z,99.90
2019-02-08T05:56:03.614Z,99.90
2019-02-08T05:58:20.127Z,99.90
2019-02-08T06:03:24.159Z,99.90
2019-02-08T06:05:40.321Z,99.90
2019-02-08T06:13:10.191Z,99.90
2019-02-08T06:15:26.702Z,99.90
2019-02-08T06:17:50.089Z,99.90
2019-02-08T06:20:17.003Z,99.90
2019-02-08T06:25:03.856Z,99.90
2019-02-08T06:27:08.168Z,99.90
2019-02-08T06:31:27.592Z,99.90
2019-02-08T06:33:51.307Z,99.90
2019-02-08T06:36:07.495Z,99.90
2019-02-08T06:38:23.878Z,99.90
2019-02-08T06:40:40.023Z,99.90
2019-02-08T06:43:02.210Z,99.90
2019-02-08T06:45:02.321Z,99.90
2019-02-08T06:47:25.950Z,99.90
2019-02-08T06:49:43.178Z,99.90
2019-02-08T06:51:59.516Z,99.90
2019-02-08T06:57:07.089Z,99.90
2019-02-08T06:59:37.981Z,99.90
2019-02-08T07:02:13.341Z,99.90
2019-02-08T07:04:51.737Z,99.90
2019-02-08T07:10:05.495Z,99.90
2019-02-08T07:12:40.910Z,99.90
2019-02-08T07:15:16.058Z,99.90
2019-02-08T07:17:54.295Z,99.90
2019-02-08T07:20:29.902Z,99.90
2019-02-08T07:22:53.261Z,99.90
2019-02-08T07:25:54.824Z,99.90
2019-02-08T07:28:27.755Z,99.90
2019-02-08T07:31:03.259Z,99.90
2019-02-08T07:33:31.583Z,99.90
2019-02-08T07:36:14.019Z,99.90
2019-02-08T07:38:47.261Z,99.90
2019-02-08T07:41:29.771Z,99.90
2019-02-08T07:47:05.425Z,99.90
2019-02-08T07:49:42.024Z,99.90
2019-02-08T07:52:17.038Z,99.90
2019-02-08T07:57:29.277Z,99.90
2019-02-08T08:00:12.896Z,99.90
2019-02-08T08:02:38.317Z,99.90
2019-02-08T08:05:08.317Z,99.90
2019-02-08T08:07:43.237Z,99.90
2019-02-08T08:10:20.782Z,99.90
2019-02-08T08:12:55.962Z,99.90
2019-02-08T08:15:31.368Z,99.90
2019-02-08T08:18:05.075Z,99.90
2019-02-08T08:20:40.268Z,99.90
2019-02-08T08:23:09.865Z,99.90
2019-02-08T08:28:14.101Z,99.90
2019-02-08T08:32:58.172Z,99.90
2019-02-08T08:35:43.774Z,99.90
2019-02-08T08:38:29.594Z,99.90
2019-02-08T08:40:45.904Z,99.90
2019-02-08T08:43:03.538Z,99.90
2019-02-08T08:45:21.958Z,99.90
2019-02-08T08:47:38.577Z,99.90
2019-02-08T08:50:21.412Z,99.90
2019-02-08T08:53:02.065Z,99.90
2019-02-08T08:55:44.697Z,99.90
2019-02-08T08:58:27.408Z,99.90
2019-02-08T09:03:37.757Z,99.90
2019-02-08T09:06:20.570Z,99.90
2019-02-08T09:08:57.098Z,99.90
2019-02-08T09:14:14.812Z,99.90
2019-02-08T09:16:58.799Z,99.90
2019-02-08T09:19:17.865Z,99.90
2019-02-08T09:22:00.549Z,99.90
2019-02-08T09:24:20.166Z,99.90
2019-02-08T09:29:43.297Z,99.90
2019-02-08T09:32:25.423Z,99.90
2019-02-08T09:35:08.320Z,99.90
2019-02-08T09:37:28.612Z,99.90
2019-02-08T09:40:13.843Z,99.90
2019-02-08T09:42:56.890Z,99.90
2019-02-08T09:48:40.549Z,99.90
2019-02-08T09:51:24.275Z,99.90
2019-02-08T09:53:43.554Z,99.90
2019-02-08T09:56:00.891Z,99.90
2019-02-08T09:58:46.686Z,99.90
2019-02-08T10:01:29.411Z,99.90
2019-02-08T10:04:19.978Z,99.90
2019-02-08T10:06:36.909Z,99.90
2019-02-08T10:09:19.684Z,99.80
2019-02-08T10:12:02.371Z,99.90
2019-02-08T10:14:45.185Z,99.90
2019-02-08T10:17:46.828Z,99.80
2019-02-08T10:20:29.890Z,99.70
2019-02-08T10:26:16.646Z,99.80
2019-02-08T10:28:32.873Z,99.50
2019-02-08T10:31:21.100Z,99.20
2019-02-08T10:34:23.015Z,99.20
2019-02-08T10:36:40.901Z,99.10
2019-02-08T10:39:23.675Z,99.00
2019-02-08T10:42:06.679Z,99.00
2019-02-08T10:44:49.576Z,98.80
2019-02-08T10:47:09.956Z,98.70
2019-02-08T10:49:52.830Z,98.90
2019-02-08T10:52:15.620Z,99.00
2019-02-08T10:54:33.845Z,98.90
2019-02-08T10:57:16.704Z,98.90
2019-02-08T10:59:59.443Z,99.00
2019-02-08T11:02:43.310Z,99.20
2019-02-08T11:05:41.121Z,99.00
2019-02-08T11:07:46.771Z,98.80
2019-02-08T11:12:46.654Z,98.70
2019-02-08T11:15:29.555Z,98.80
2019-02-08T11:18:14.277Z,98.80
2019-02-08T11:20:34.781Z,98.70
2019-02-08T11:22:51.032Z,98.40
2019-02-08T11:25:07.413Z,98.40
2019-02-08T11:27:33.167Z,98.20
2019-02-08T11:30:01.330Z,98.40
2019-02-08T11:32:42.913Z,98.50
2019-02-08T11:34:58.161Z,98.10
2019-02-08T11:37:25.187Z,98.10
2019-02-08T11:39:52.630Z,97.90
2019-02-08T11:44:37.513Z,97.30
2019-02-08T11:47:20.327Z,97.30
2019-02-08T11:49:40.919Z,97.30
2019-02-08T11:51:57.383Z,97.40
2019-02-08T11:56:17.719Z,97.70
2019-02-08T11:58:44.736Z,97.50
2019-02-08T12:00:53.965Z,97.30
2019-02-08T12:03:22.391Z,97.30
2019-02-08T12:05:27.311Z,97.20
2019-02-08T12:07:51.168Z,97.20
2019-02-08T12:10:16.950Z,97.20
2019-02-08T12:12:33.628Z,97.20
2019-02-08T12:14:50.978Z,96.80
2019-02-08T12:17:07.596Z,96.70
2019-02-08T12:19:33.099Z,96.60
2019-02-08T12:21:51.305Z,96.70
2019-02-08T12:23:56.543Z,96.70
2019-02-08T12:26:28.482Z,97.00
2019-02-08T12:28:25.559Z,97.20
2019-02-08T12:30:44.183Z,97.10
2019-02-08T12:33:12.836Z,97.10
2019-02-08T12:36:02.355Z,97.30
2019-02-08T12:38:26.216Z,97.10
2019-02-08T12:40:46.534Z,96.80
2019-02-08T12:43:04.661Z,96.80
2019-02-08T12:45:24.002Z,96.90
2019-02-08T12:50:15.177Z,97.10
2019-02-08T12:55:21.942Z,96.80
2019-02-08T12:57:48.154Z,96.70
2019-02-08T13:00:16.453Z,96.60
2019-02-08T13:02:40.087Z,96.40
2019-02-08T13:05:10.576Z,97.00
2019-02-08T13:07:15.232Z,97.00
2019-02-08T13:09:25.497Z,97.10
2019-02-08T13:12:08.067Z,97.20
2019-02-08T13:15:07.085Z,97.10
2019-02-08T13:17:18.264Z,97.10
2019-02-08T13:19:45.222Z,97.10
2019-02-08T13:22:25.439Z,96.80
2019-02-08T13:24:37.647Z,96.70
2019-02-08T13:26:53.853Z,96.50
2019-02-08T13:29:13.835Z,96.40
2019-02-08T13:31:38.685Z,96.60
2019-02-08T13:34:02.308Z,96.60
2019-02-08T13:36:24.427Z,96.30
2019-02-08T13:38:37.722Z,96.40
2019-02-08T13:40:42.250Z,96.20
2019-02-08T13:43:05.842Z,96.00
2019-02-08T13:45:23.124Z,96.00
2019-02-08T13:47:39.365Z,96.20
2019-02-08T13:49:47.122Z,96.30
2019-02-08T13:52:29.892Z,96.40
2019-02-08T13:54:36.470Z,96.40
2019-02-08T13:57:10.606Z,96.50
2019-02-08T13:59:26.977Z,96.70
2019-02-08T14:01:51.331Z,96.20
2019-02-08T14:03:55.980Z,96.20
2019-02-08T14:06:02.741Z,96.10
2019-02-08T14:08:07.603Z,96.00
2019-02-08T14:10:47.429Z,95.90
2019-02-08T14:13:02.063Z,95.90
2019-02-08T14:15:18.438Z,95.80
2019-02-08T14:17:23.023Z,95.90
2019-02-08T14:20:05.512Z,95.70
2019-02-08T14:22:22.103Z,95.70
2019-02-08T14:24:38.604Z,95.90
2019-02-08T14:26:57.856Z,96.10
2019-02-08T14:29:14.113Z,95.90
2019-02-08T14:31:23.228Z,96.30
2019-02-08T14:39:02.538Z,96.40
2019-02-08T14:44:46.760Z,96.40
2019-02-08T14:47:19.148Z,96.20
2019-02-08T14:52:15.358Z,96.20
2019-02-08T14:54:32.839Z,96.20
2019-02-08T14:56:49.904Z,96.30
2019-02-08T14:59:14.407Z,96.00
2019-02-08T15:01:39.060Z,96.50
2019-02-08T15:04:21.606Z,96.70
2019-02-08T15:06:39.523Z,96.50
2019-02-08T15:08:55.772Z,96.50
2019-02-08T15:11:12.472Z,96.60
2019-02-08T15:16:26.282Z,96.50
2019-02-08T15:18:38.814Z,96.60
2019-02-08T15:20:45.909Z,96.70
2019-02-08T15:23:09.816Z,96.50
2019-02-08T15:25:34.124Z,96.30
2019-02-08T15:27:42.268Z,96.40
2019-02-08T15:30:50.836Z,96.30
2019-02-08T15:33:06.752Z,96.20
2019-02-08T15:35:22.846Z,96.40
2019-02-08T15:37:28.854Z,96.40
2019-02-08T15:39:52.583Z,96.40
2019-02-08T15:41:57.381Z,96.40
2019-02-08T15:46:51.419Z,96.20
2019-02-08T15:49:40.023Z,96.40
2019-02-08T15:51:51.002Z,96.00
2019-02-08T15:57:10.081Z,96.20
2019-02-08T15:59:27.531Z,96.10
2019-02-08T16:01:43.704Z,96.10
2019-02-08T16:04:00.223Z,96.50
2019-02-08T16:06:40.405Z,96.10
2019-02-08T16:08:35.734Z,96.10
2019-02-08T16:11:19.937Z,95.90
2019-02-08T16:16:04.191Z,96.00
2019-02-08T16:18:29.846Z,95.90
2019-02-08T16:20:46.303Z,95.90
2019-02-08T16:23:04.215Z,95.90
2019-02-08T16:25:24.459Z,95.90
2019-02-08T16:27:50.099Z,95.90
2019-02-08T16:30:30.211Z,96.00
2019-02-08T16:32:43.346Z,95.80
2019-02-08T16:43:33.031Z,96.60
2019-02-08T16:45:49.327Z,96.20
2019-02-08T16:48:05.641Z,96.30
2019-02-08T16:53:35.281Z,96.40
2019-02-08T16:55:53.605Z,96.50
2019-02-08T17:01:05.534Z,96.40
2019-02-08T17:03:13.939Z,96.70
2019-02-08T17:05:30.340Z,96.50
2019-02-08T17:07:57.008Z,96.60
2019-02-08T17:10:15.000Z,96.60
2019-02-08T17:12:21.247Z,96.50
2019-02-08T17:19:54.997Z,96.60
2019-02-08T17:22:11.683Z,96.60
2019-02-08T17:24:16.309Z,96.50
2019-02-08T17:26:50.555Z,96.70
2019-02-08T17:32:11.715Z,96.60
2019-02-08T17:34:06.899Z,96.60
2019-02-08T17:39:11.677Z,96.70
2019-02-08T17:41:28.213Z,96.80
2019-02-08T17:46:30.897Z,96.70
2019-02-08T17:48:49.168Z,96.80
2019-02-08T17:51:07.828Z,96.70
2019-02-08T17:53:23.881Z,96.60
2019-02-08T17:55:40.294Z,96.70
2019-02-08T17:58:03.206Z,96.80
2019-02-08T18:00:03.584Z,96.80
2019-02-08T18:02:27.183Z,96.80
2019-02-08T18:07:08.504Z,96.90
2019-02-08T18:09:13.049Z,96.80
2019-02-08T18:11:39.366Z,96.80
2019-02-08T18:13:44.229Z,96.70
2019-02-08T18:16:26.953Z,96.80
2019-02-08T18:18:31.416Z,96.80
2019-02-08T18:21:16.696Z,96.70
2019-02-08T18:24:00.671Z,96.80
2019-02-08T18:26:17.190Z,96.60
2019-02-08T18:28:33.433Z,96.70
2019-02-08T18:30:49.956Z,96.80
2019-02-08T18:33:06.466Z,96.70
2019-02-08T18:37:45.536Z,96.30
2019-02-08T18:40:28.287Z,96.50
2019-02-08T18:42:44.334Z,96.70
2019-02-08T18:45:00.879Z,96.70
2019-02-08T18:47:26.146Z,96.60
2019-02-08T18:49:42.975Z,96.60
2019-02-08T18:52:01.826Z,96.40
2019-02-08T18:54:17.896Z,96.50
2019-02-08T18:56:56.995Z,96.50
2019-02-08T18:59:20.781Z,96.50
2019-02-08T19:01:37.522Z,96.30
2019-02-08T19:03:54.039Z,96.20
2019-02-08T19:06:17.786Z,96.00
2019-02-08T19:08:34.072Z,96.00
2019-02-08T19:11:17.491Z,96.00
2019-02-08T19:13:18.360Z,96.10
2019-02-08T19:15:35.061Z,96.00
2019-02-08T19:18:00.914Z,96.10
2019-02-08T19:20:40.152Z,96.30
2019-02-08T19:23:03.416Z,96.00
2019-02-08T19:25:17.782Z,96.00
2019-02-08T19:29:53.301Z,95.80
2019-02-08T19:32:23.256Z,95.80
2019-02-08T19:34:29.807Z,95.80
2019-02-08T19:36:48.872Z,96.00
2019-02-08T19:39:25.809Z,95.80
2019-02-08T19:41:42.141Z,95.70
2019-02-08T19:44:01.323Z,95.50
2019-02-08T19:46:17.420Z,95.40
2019-02-08T19:48:36.678Z,95.40
2019-02-08T19:50:53.240Z,95.40
2019-02-08T19:53:09.894Z,95.30
2019-02-08T19:55:26.323Z,95.40
2019-02-08T19:57:42.599Z,95.40
2019-02-08T20:00:02.244Z,95.30
2019-02-08T20:02:25.909Z,95.30
2019-02-08T20:04:44.251Z,95.40
2019-02-08T20:07:00.632Z,95.50
2019-02-08T20:09:19.604Z,95.50
2019-02-08T20:11:35.897Z,95.40
2019-02-08T20:13:53.335Z,95.40
2019-02-08T20:16:18.859Z,95.40
2019-02-08T20:18:55.513Z,95.50
2019-02-08T20:21:00.690Z,95.50
2019-02-08T20:23:17.930Z,95.50
2019-02-08T20:25:34.441Z,95.60
2019-02-08T20:27:56.833Z,95.60
2019-02-08T20:30:13.516Z,95.40
2019-02-08T20:32:39.849Z,95.50
2019-02-08T20:40:26.132Z,95.50
2019-02-08T20:42:43.575Z,95.30
2019-02-08T20:45:02.318Z,95.20
2019-02-08T20:47:06.914Z,95.20
2019-02-08T20:49:32.197Z,95.30
2019-02-08T20:51:42.795Z,95.40
2019-02-08T20:53:50.026Z,95.40
2019-02-08T20:56:25.548Z,95.50
2019-02-08T20:59:09.159Z,95.80
2019-02-08T21:00:57.211Z,95.20
2019-02-08T21:03:14.167Z,95.20
2019-02-08T21:05:30.642Z,95.20
2019-02-08T21:07:46.786Z,95.20
2019-02-08T21:10:05.851Z,95.30
2019-02-08T21:12:29.492Z,95.20
2019-02-08T21:14:48.575Z,95.40
2019-02-08T21:17:05.702Z,95.40
2019-02-08T21:19:41.548Z,95.40
2019-02-08T21:21:47.399Z,95.30
2019-02-08T21:24:12.542Z,95.40
2019-02-08T21:26:36.192Z,95.50
2019-02-08T21:28:43.856Z,95.50
2019-02-08T21:31:04.401Z,95.40
2019-02-08T21:33:22.798Z,95.20
2019-02-08T21:35:49.606Z,95.30
2019-02-08T21:38:13.939Z,95.40
2019-02-08T21:40:35.578Z,95.20
2019-02-08T21:42:51.661Z,95.30
2019-02-08T21:45:10.659Z,95.30
2019-02-08T21:47:27.752Z,95.30
2019-02-08T21:49:44.498Z,95.30
2019-02-08T21:52:00.724Z,95.20
2019-02-08T21:54:21.768Z,95.10
2019-02-08T21:59:30.738Z,95.20
2019-02-08T22:04:19.880Z,95.10
2019-02-08T22:09:17.408Z,95.00
2019-02-08T22:11:34.513Z,94.90
2019-02-08T22:13:50.484Z,95.00
2019-02-08T22:16:09.543Z,95.00
2019-02-08T22:18:28.019Z,95.00
2019-02-08T22:22:49.130Z,95.20
2019-02-08T22:25:05.752Z,95.20
2019-02-08T22:27:22.181Z,95.20
2019-02-08T22:29:38.489Z,95.10
2019-02-08T22:31:57.505Z,95.10
2019-02-08T22:34:14.132Z,94.90
2019-02-08T22:36:30.300Z,94.90
2019-02-08T22:38:46.692Z,94.70
2019-02-08T22:41:02.729Z,94.80
2019-02-08T22:43:19.328Z,94.70
2019-02-08T22:45:38.668Z,94.80
2019-02-08T22:48:23.009Z,95.00
2019-02-08T22:50:53.691Z,94.90
2019-02-08T22:52:58.382Z,94.80
2019-02-08T22:57:40.083Z,94.90
2019-02-08T23:00:08.222Z,94.80
2019-02-08T23:02:26.483Z,95.00
2019-02-08T23:05:22.274Z,94.80
2019-02-08T23:07:09.627Z,94.70
2019-02-08T23:09:32.588Z,95.00
2019-02-08T23:11:53.578Z,95.00
2019-02-08T23:14:11.273Z,95.00
2019-02-08T23:16:28.075Z,95.00
2019-02-08T23:19:01.872Z,95.10
2019-02-08T23:21:23.933Z,95.00
2019-02-08T23:23:42.479Z,95.00
2019-02-08T23:26:26.148Z,95.10
2019-02-08T23:28:43.805Z,95.00
2019-02-08T23:31:01.591Z,94.90
2019-02-08T23:33:19.677Z,94.80
2019-02-08T23:35:42.865Z,95.00
2019-02-08T23:37:47.090Z,95.00
2019-02-08T23:42:21.790Z,95.00
2019-02-08T23:44:40.738Z,95.20
2019-02-08T23:47:08.728Z,95.30
2019-02-08T23:49:21.352Z,95.30
2019-02-08T23:52:05.327Z,95.20
2019-02-08T23:55:06.276Z,95.10
2019-02-08T23:57:09.543Z,94.90
2019-02-08T23:59:25.544Z,94.80
